Time,TemperatureF,DewpointF,PressureIn,WindDirection,WindDirectionDegrees,WindSpeedMPH,WindSpeedGustMPH,Humidity,HourlyPrecipIn,Conditions,Clouds,dailyrainin,SoftwareType,DateUTC
2013-02-07 00:04:00,53.9,51.9,29.85,SE,135,12.3,12.3,93,0.00,,,0.00,VWS V14.00,2013-02-07 06:04:00,
2013-02-07 00:09:00,53.9,51.9,29.85,SE,135,17.2,17.2,93,0.00,,,0.00,VWS V14.00,2013-02-07 06:09:00,
2013-02-07 00:14:00,53.9,51.9,29.85,SE,135,17.4,17.4,93,0.00,,,0.00,VWS V14.00,2013-02-07 06:14:00,
2013-02-07 00:19:00,53.9,51.9,29.85,SE,135,16.1,16.1,93,0.00,,,0.00,VWS V14.00,2013-02-07 06:19:00,
2013-02-07 00:24:00,53.9,51.9,29.84,SSE,158,10.9,10.9,93,0.00,,,0.00,VWS V14.00,2013-02-07 06:24:00,
2013-02-07 00:29:00,53.9,51.9,29.85,SSE,158,9.1,9.1,93,0.00,,,0.00,VWS V14.00,2013-02-07 06:29:00,
2013-02-07 00:35:00,53.9,51.9,29.84,SE,135,12.3,12.3,93,0.00,,,0.00,VWS V14.00,2013-02-07 06:35:00,
2013-02-07 00:40:00,53.9,51.9,29.85,SE,135,12.0,12.0,93,0.00,,,0.00,VWS V14.00,2013-02-07 06:40:00,
2013-02-07 00:45:00,53.9,51.9,29.85,SE,135,7.6,7.6,93,0.00,,,0.00,VWS V14.00,2013-02-07 06:45:00,
2013-02-07 00:50:00,53.9,51.9,29.84,SE,135,12.7,12.7,93,0.00,,,0.00,VWS V14.00,2013-02-07 06:50:00,
2013-02-07 00:55:00,53.9,51.9,29.84,SSE,158,11.6,11.6,93,0.00,,,0.00,VWS V14.00,2013-02-07 06:55:00,
2013-02-07 01:00:00,53.9,51.9,29.84,SE,135,11.8,11.8,93,0.00,,,0.00,VWS V14.00,2013-02-07 07:00:00,
2013-02-07 01:05:00,53.9,51.9,29.84,SE,135,8.2,12.0,93,0.00,,,0.00,VWS V14.00,2013-02-07 07:05:00,
2013-02-07 01:11:00,53.7,51.7,29.84,SE,135,12.7,12.7,93,0.00,,,0.00,VWS V14.00,2013-02-07 07:11:00,
2013-02-07 01:16:00,53.7,51.7,29.84,SE,135,9.1,9.1,93,0.00,,,0.00,VWS V14.00,2013-02-07 07:16:00,
2013-02-07 01:21:00,53.7,51.7,29.83,SSE,158,7.8,7.8,93,0.00,,,0.00,VWS V14.00,2013-02-07 07:21:00,
2013-02-07 01:26:00,53.7,51.7,29.83,SE,135,12.3,12.3,93,0.00,,,0.00,VWS V14.00,2013-02-07 07:26:00,
2013-02-07 01:31:00,53.7,51.7,29.83,SE,135,7.3,7.3,93,0.00,,,0.00,VWS V14.00,2013-02-07 07:31:00,
2013-02-07 01:36:00,53.7,52.0,29.83,SE,135,8.9,8.9,94,0.00,,,0.00,VWS V14.00,2013-02-07 07:36:00,
2013-02-07 01:41:00,53.7,51.7,29.83,SE,135,6.9,6.9,93,0.00,,,0.00,VWS V14.00,2013-02-07 07:41:00,
2013-02-07 01:47:00,53.7,52.0,29.83,SE,135,11.6,11.6,94,0.00,,,0.00,VWS V14.00,2013-02-07 07:47:00,
2013-02-07 01:52:00,53.7,52.0,29.83,SE,135,11.6,11.6,94,0.00,,,0.00,VWS V14.00,2013-02-07 07:52:00,
2013-02-07 01:57:00,53.9,52.2,29.83,SE,135,9.1,9.1,94,0.00,,,0.00,VWS V14.00,2013-02-07 07:57:00,
2013-02-07 02:02:00,53.9,52.2,29.83,SE,135,11.1,11.1,94,0.00,,,0.00,VWS V14.00,2013-02-07 08:02:00,
2013-02-07 02:07:00,53.9,52.2,29.83,SE,135,15.8,15.8,94,0.00,,,0.00,VWS V14.00,2013-02-07 08:07:00,
2013-02-07 02:12:00,53.9,52.2,29.82,ESE,112,9.6,9.6,94,0.00,,,0.00,VWS V14.00,2013-02-07 08:12:00,
2013-02-07 02:17:00,53.9,52.2,29.82,SE,135,14.3,14.3,94,0.00,,,0.00,VWS V14.00,2013-02-07 08:17:00,
2013-02-07 02:23:00,53.9,52.2,29.82,SE,135,9.3,9.3,94,0.00,,,0.00,VWS V14.00,2013-02-07 08:23:00,
2013-02-07 02:28:00,53.7,52.0,29.82,ESE,112,6.9,6.9,94,0.00,,,0.00,VWS V14.00,2013-02-07 08:28:00,
2013-02-07 02:33:00,53.7,52.0,29.82,SE,135,16.3,16.3,94,0.00,,,0.00,VWS V14.00,2013-02-07 08:33:00,
2013-02-07 02:38:00,53.7,52.0,29.81,SE,135,8.2,8.2,94,0.00,,,0.00,VWS V14.00,2013-02-07 08:38:00,
2013-02-07 02:43:00,53.7,52.0,29.81,SE,135,13.1,13.1,94,0.00,,,0.00,VWS V14.00,2013-02-07 08:43:00,
2013-02-07 02:48:00,53.7,52.0,29.81,SE,135,16.7,16.7,94,0.00,,,0.00,VWS V14.00,2013-02-07 08:48:00,
2013-02-07 02:53:00,53.7,52.0,29.82,SE,135,10.0,10.0,94,0.00,,,0.00,VWS V14.00,2013-02-07 08:53:00,
2013-02-07 02:58:00,53.7,52.0,29.81,SE,135,13.4,13.4,94,0.00,,,0.00,VWS V14.00,2013-02-07 08:58:00,
2013-02-07 03:04:00,53.7,52.0,29.81,SSE,158,12.0,12.0,94,0.00,,,0.00,VWS V14.00,2013-02-07 09:04:00,
2013-02-07 03:09:00,53.7,52.0,29.81,SE,135,7.8,7.8,94,0.00,,,0.00,VWS V14.00,2013-02-07 09:09:00,
2013-02-07 03:14:00,53.7,52.0,29.81,SE,135,10.2,10.2,94,0.00,,,0.00,VWS V14.00,2013-02-07 09:14:00,
2013-02-07 03:19:00,53.7,52.0,29.81,ESE,112,8.7,8.7,94,0.00,,,0.00,VWS V14.00,2013-02-07 09:19:00,
2013-02-07 03:24:00,53.7,52.0,29.81,ESE,112,11.4,11.4,94,0.00,,,0.00,VWS V14.00,2013-02-07 09:24:00,
2013-02-07 03:29:00,53.7,52.0,29.80,SE,135,4.2,4.2,94,0.00,,,0.00,VWS V14.00,2013-02-07 09:29:00,
2013-02-07 03:34:00,53.9,52.2,29.80,SSE,158,10.7,10.7,94,0.00,,,0.00,VWS V14.00,2013-02-07 09:34:00,
2013-02-07 03:39:00,53.9,52.2,29.80,SE,135,9.3,9.3,94,0.00,,,0.00,VWS V14.00,2013-02-07 09:39:00,
2013-02-07 03:44:00,54.1,52.4,29.80,SE,135,7.1,7.1,94,0.00,,,0.00,VWS V14.00,2013-02-07 09:44:00,
2013-02-07 03:50:00,54.1,52.4,29.80,SSE,158,8.2,8.2,94,0.00,,,0.00,VWS V14.00,2013-02-07 09:50:00,
2013-02-07 03:55:00,54.3,52.6,29.80,ESE,112,11.8,11.8,94,0.00,,,0.00,VWS V14.00,2013-02-07 09:55:00,
2013-02-07 04:00:00,54.3,52.6,29.80,SSE,158,7.3,7.3,94,0.00,,,0.00,VWS V14.00,2013-02-07 10:00:00,
2013-02-07 04:05:00,54.3,52.6,29.80,SE,135,10.9,10.9,94,0.00,,,0.00,VWS V14.00,2013-02-07 10:05:00,
2013-02-07 04:10:00,54.3,52.6,29.80,SE,135,14.5,14.5,94,0.00,,,0.00,VWS V14.00,2013-02-07 10:10:00,
2013-02-07 04:15:00,54.3,52.6,29.80,SSE,158,9.6,9.6,94,0.00,,,0.00,VWS V14.00,2013-02-07 10:15:00,
2013-02-07 04:20:00,54.3,52.6,29.80,SE,135,8.9,10.9,94,0.00,,,0.00,VWS V14.00,2013-02-07 10:20:00,
2013-02-07 04:26:00,54.3,52.6,29.80,SSE,158,8.7,8.7,94,0.00,,,0.00,VWS V14.00,2013-02-07 10:26:00,
2013-02-07 04:31:00,54.3,52.6,29.79,SE,135,8.9,8.9,94,0.00,,,0.00,VWS V14.00,2013-02-07 10:31:00,
2013-02-07 04:36:00,54.3,52.6,29.79,SE,135,12.3,12.3,94,0.00,,,0.00,VWS V14.00,2013-02-07 10:36:00,
2013-02-07 04:41:00,54.3,52.6,29.79,SE,135,12.3,12.3,94,0.00,,,0.00,VWS V14.00,2013-02-07 10:41:00,
2013-02-07 04:46:00,54.3,52.6,29.79,SE,135,6.7,6.7,94,0.00,,,0.00,VWS V14.00,2013-02-07 10:46:00,
2013-02-07 04:51:00,54.3,52.6,29.79,SE,135,6.4,6.4,94,0.00,,,0.00,VWS V14.00,2013-02-07 10:51:00,
2013-02-07 04:57:00,54.5,52.8,29.79,SE,135,11.6,11.6,94,0.00,,,0.00,VWS V14.00,2013-02-07 10:57:00,
2013-02-07 05:02:00,54.5,52.8,29.78,SE,135,10.0,10.0,94,0.00,,,0.00,VWS V14.00,2013-02-07 11:02:00,
2013-02-07 05:07:00,54.3,52.6,29.79,SE,135,11.6,11.6,94,0.00,,,0.00,VWS V14.00,2013-02-07 11:07:00,
2013-02-07 05:12:00,54.5,52.8,29.78,SE,135,12.3,12.3,94,0.00,,,0.00,VWS V14.00,2013-02-07 11:12:00,
2013-02-07 05:17:00,54.5,52.8,29.79,SE,135,8.7,8.7,94,0.00,,,0.00,VWS V14.00,2013-02-07 11:17:00,
2013-02-07 05:22:00,54.5,52.8,29.78,SE,135,5.5,5.5,94,0.00,,,0.00,VWS V14.00,2013-02-07 11:22:00,
2013-02-07 05:28:00,54.5,52.8,29.78,SE,135,8.0,8.0,94,0.00,,,0.00,VWS V14.00,2013-02-07 11:28:00,
2013-02-07 05:33:00,54.5,52.8,29.78,SE,135,0.0,0.0,94,0.00,,,0.00,VWS V14.00,2013-02-07 11:33:00,
2013-02-07 05:38:00,54.5,52.8,29.78,SE,135,5.1,5.1,94,0.00,,,0.00,VWS V14.00,2013-02-07 11:38:00,
2013-02-07 05:43:00,54.5,52.8,29.78,SE,135,8.5,8.5,94,0.00,,,0.00,VWS V14.00,2013-02-07 11:43:00,
2013-02-07 05:48:00,54.6,52.9,29.78,SSE,158,6.0,6.0,94,0.00,,,0.00,VWS V14.00,2013-02-07 11:48:00,
2013-02-07 05:53:00,54.6,52.9,29.78,SE,135,9.6,9.6,94,0.00,,,0.00,VWS V14.00,2013-02-07 11:53:00,
2013-02-07 05:58:00,54.6,52.9,29.78,SSE,158,1.3,1.3,94,0.00,,,0.00,VWS V14.00,2013-02-07 11:58:00,
2013-02-07 06:04:00,54.8,53.1,29.78,SE,135,6.9,6.9,94,0.00,,,0.00,VWS V14.00,2013-02-07 12:04:00,
2013-02-07 06:09:00,55.0,53.3,29.78,SE,135,8.7,8.7,94,0.00,,,0.00,VWS V14.00,2013-02-07 12:09:00,
2013-02-07 06:14:00,55.0,53.3,29.78,SE,135,9.3,9.3,94,0.00,,,0.00,VWS V14.00,2013-02-07 12:14:00,
2013-02-07 06:19:00,55.0,53.3,29.79,SSE,158,9.3,9.3,94,0.00,,,0.00,VWS V14.00,2013-02-07 12:19:00,
2013-02-07 06:24:00,55.0,53.3,29.78,SE,135,13.4,13.4,94,0.00,,,0.00,VWS V14.00,2013-02-07 12:24:00,
2013-02-07 06:29:00,55.2,53.5,29.78,SE,135,7.8,7.8,94,0.00,,,0.00,VWS V14.00,2013-02-07 12:29:00,
2013-02-07 06:35:00,55.2,53.5,29.78,SSE,158,10.0,10.0,94,0.00,,,0.00,VWS V14.00,2013-02-07 12:35:00,
2013-02-07 06:40:00,55.2,53.5,29.78,SE,135,8.7,8.7,94,0.00,,,0.00,VWS V14.00,2013-02-07 12:40:00,
2013-02-07 06:45:00,55.2,53.5,29.77,SE,135,10.0,13.6,94,0.00,,,0.00,VWS V14.00,2013-02-07 12:45:00,
2013-02-07 06:50:00,55.2,53.5,29.77,SE,135,8.2,8.2,94,0.00,,,0.00,VWS V14.00,2013-02-07 12:50:00,
2013-02-07 06:55:00,55.4,53.7,29.77,SE,135,6.4,6.4,94,0.00,,,0.00,VWS V14.00,2013-02-07 12:55:00,
2013-02-07 07:00:00,55.5,53.8,29.78,SSE,158,7.1,7.1,94,0.00,,,0.00,VWS V14.00,2013-02-07 13:00:00,
2013-02-07 07:05:00,55.7,54.0,29.78,SE,135,8.7,8.7,94,0.00,,,0.00,VWS V14.00,2013-02-07 13:05:00,
2013-02-07 07:11:00,55.7,54.0,29.77,SE,135,8.5,8.5,94,0.00,,,0.00,VWS V14.00,2013-02-07 13:11:00,
2013-02-07 07:16:00,55.9,54.2,29.77,SE,135,7.8,7.8,94,0.00,,,0.00,VWS V14.00,2013-02-07 13:16:00,
2013-02-07 07:21:00,55.9,54.2,29.78,SE,135,8.2,8.2,94,0.00,,,0.00,VWS V14.00,2013-02-07 13:21:00,
2013-02-07 07:26:00,55.9,54.2,29.78,SE,135,7.3,7.3,94,0.00,,,0.00,VWS V14.00,2013-02-07 13:26:00,
2013-02-07 07:31:00,56.1,54.4,29.77,SSE,158,7.3,7.3,94,0.00,,,0.00,VWS V14.00,2013-02-07 13:31:00,
2013-02-07 07:36:00,56.1,54.4,29.78,SSE,158,7.1,7.1,94,0.00,,,0.00,VWS V14.00,2013-02-07 13:36:00,
2013-02-07 07:41:00,56.3,54.6,29.78,SSE,158,7.1,7.1,94,0.00,,,0.00,VWS V14.00,2013-02-07 13:41:00,
2013-02-07 07:46:00,56.3,54.6,29.78,SSE,158,10.9,10.9,94,0.00,,,0.00,VWS V14.00,2013-02-07 13:46:00,
2013-02-07 07:51:00,56.4,54.7,29.78,SE,135,9.3,9.3,94,0.00,,,0.00,VWS V14.00,2013-02-07 13:51:00,
2013-02-07 07:57:00,56.4,54.7,29.78,SSE,158,12.5,12.5,94,0.00,,,0.00,VWS V14.00,2013-02-07 13:57:00,
2013-02-07 08:02:00,56.6,54.9,29.79,SE,135,10.5,10.5,94,0.00,,,0.00,VWS V14.00,2013-02-07 14:02:00,
2013-02-07 08:07:00,56.8,55.1,29.78,SE,135,11.8,11.8,94,0.00,,,0.00,VWS V14.00,2013-02-07 14:07:00,
2013-02-07 08:12:00,56.8,55.1,29.79,SSE,158,10.0,10.0,94,0.00,,,0.00,VWS V14.00,2013-02-07 14:12:00,
2013-02-07 08:17:00,57.0,55.3,29.79,SSE,158,8.9,8.9,94,0.00,,,0.00,VWS V14.00,2013-02-07 14:17:00,
2013-02-07 08:22:00,57.0,55.3,29.79,SE,135,10.9,10.9,94,0.00,,,0.00,VWS V14.00,2013-02-07 14:22:00,
2013-02-07 08:27:00,57.0,55.3,29.80,SSE,158,9.1,9.1,94,0.00,,,0.00,VWS V14.00,2013-02-07 14:27:00,
2013-02-07 08:32:00,57.0,55.3,29.80,SSE,158,8.2,8.2,94,0.00,,,0.00,VWS V14.00,2013-02-07 14:32:00,
2013-02-07 08:38:00,57.0,55.3,29.80,SSE,158,6.2,6.2,94,0.00,,,0.00,VWS V14.00,2013-02-07 14:38:00,
2013-02-07 08:43:00,57.3,55.6,29.80,SSE,158,0.6,0.6,94,0.00,,,0.00,VWS V14.00,2013-02-07 14:43:00,
2013-02-07 08:48:00,57.5,55.8,29.81,SSE,158,3.3,3.3,94,0.00,,,0.00,VWS V14.00,2013-02-07 14:48:00,
2013-02-07 08:53:00,57.7,56.0,29.84,SSE,158,5.5,5.5,94,0.00,,,0.00,VWS V14.00,2013-02-07 14:53:00,
2013-02-07 08:58:00,57.7,56.0,29.84,SSE,158,0.0,0.0,94,0.00,,,0.00,VWS V14.00,2013-02-07 14:58:00,
2013-02-07 09:03:00,57.7,56.0,29.85,SSE,158,0.0,0.0,94,0.00,,,0.00,VWS V14.00,2013-02-07 15:03:00,
2013-02-07 09:08:00,57.7,56.0,29.84,SSE,158,0.0,0.0,94,0.00,,,0.00,VWS V14.00,2013-02-07 15:08:00,
2013-02-07 09:13:00,57.7,56.0,29.84,SSE,158,0.0,0.0,94,0.00,,,0.00,VWS V14.00,2013-02-07 15:13:00,
2013-02-07 09:19:00,57.9,56.2,29.84,SSE,158,0.0,0.0,94,0.00,,,0.00,VWS V14.00,2013-02-07 15:19:00,
2013-02-07 09:24:00,57.9,56.2,29.84,SSE,158,0.0,0.0,94,0.00,,,0.00,VWS V14.00,2013-02-07 15:24:00,
2013-02-07 09:29:00,57.7,56.0,29.84,SSE,158,0.0,0.0,94,0.00,,,0.00,VWS V14.00,2013-02-07 15:29:00,
2013-02-07 09:34:00,57.7,56.0,29.84,SSE,158,11.8,11.8,94,0.00,,,0.00,VWS V14.00,2013-02-07 15:34:00,
2013-02-07 09:39:00,57.7,56.0,29.84,SSE,158,0.0,0.0,94,0.00,,,0.00,VWS V14.00,2013-02-07 15:39:00,
2013-02-07 09:44:00,57.7,56.0,29.84,SSE,158,0.0,0.0,94,0.00,,,0.00,VWS V14.00,2013-02-07 15:44:00,
2013-02-07 09:49:00,57.7,56.0,29.84,SSE,158,0.0,0.0,94,0.00,,,0.00,VWS V14.00,2013-02-07 15:49:00,
2013-02-07 09:55:00,57.5,55.8,29.84,SSE,158,0.0,0.0,94,0.00,,,0.00,VWS V14.00,2013-02-07 15:55:00,
2013-02-07 10:00:00,57.5,55.8,29.84,SSE,158,0.0,10.5,94,0.00,,,0.00,VWS V14.00,2013-02-07 16:00:00,
2013-02-07 10:05:00,57.7,56.0,29.84,SSE,158,0.0,0.0,94,0.00,,,0.00,VWS V14.00,2013-02-07 16:05:00,
2013-02-07 10:10:00,57.9,56.2,29.85,SSE,158,0.0,0.0,94,0.00,,,0.00,VWS V14.00,2013-02-07 16:10:00,
2013-02-07 10:15:00,57.9,56.2,29.85,SSE,158,0.0,0.0,94,0.00,,,0.00,VWS V14.00,2013-02-07 16:15:00,
2013-02-07 10:20:00,58.1,56.4,29.85,SSE,158,0.0,0.0,94,0.00,,,0.00,VWS V14.00,2013-02-07 16:20:00,
2013-02-07 10:25:00,58.2,56.5,29.85,SSE,158,0.0,0.0,94,0.00,,,0.00,VWS V14.00,2013-02-07 16:25:00,
2013-02-07 10:31:00,58.2,56.5,29.85,SSE,158,0.0,0.0,94,0.00,,,0.00,VWS V14.00,2013-02-07 16:31:00,
2013-02-07 10:36:00,58.8,57.1,29.85,SSE,158,0.0,0.0,94,0.00,,,0.00,VWS V14.00,2013-02-07 16:36:00,
2013-02-07 10:41:00,58.8,57.1,29.85,SSE,158,7.1,7.1,94,0.00,,,0.00,VWS V14.00,2013-02-07 16:41:00,
2013-02-07 10:46:00,59.0,57.0,29.85,NNE,22,0.8,0.8,93,0.00,,,0.00,VWS V14.00,2013-02-07 16:46:00,
2013-02-07 10:51:00,59.1,57.1,29.85,NNE,22,7.1,7.1,93,0.00,,,0.00,VWS V14.00,2013-02-07 16:51:00,
2013-02-07 10:56:00,59.5,57.5,29.85,NE,45,0.0,0.0,93,0.00,,,0.00,VWS V14.00,2013-02-07 16:56:00,
2013-02-07 11:01:00,59.5,57.5,29.85,NE,45,0.0,0.0,93,0.00,,,0.00,VWS V14.00,2013-02-07 17:01:00,
2013-02-07 11:06:00,60.0,58.0,29.85,NE,45,0.0,0.0,93,0.00,,,0.00,VWS V14.00,2013-02-07 17:06:00,
2013-02-07 11:12:00,60.9,58.9,29.85,East,90,0.0,0.0,93,0.00,,,0.00,VWS V14.00,2013-02-07 17:12:00,
2013-02-07 11:17:00,62.4,59.4,29.86,ENE,68,0.0,0.0,90,0.00,,,0.00,VWS V14.00,2013-02-07 17:17:00,
2013-02-07 11:22:00,62.7,59.4,29.86,NE,45,0.0,0.0,89,0.00,,,0.00,VWS V14.00,2013-02-07 17:22:00,
2013-02-07 11:27:00,62.9,59.0,29.85,NNW,338,8.0,8.0,87,0.00,,,0.00,VWS V14.00,2013-02-07 17:27:00,
2013-02-07 11:32:00,63.6,59.0,29.85,NNW,338,0.2,0.2,85,0.00,,,0.00,VWS V14.00,2013-02-07 17:32:00,
2013-02-07 11:38:00,63.6,58.3,29.86,North,0,7.1,7.1,83,0.00,,,0.00,VWS V14.00,2013-02-07 17:38:00,
2013-02-07 11:43:00,63.6,58.0,29.86,NNE,22,8.0,8.0,82,0.00,,,0.00,VWS V14.00,2013-02-07 17:43:00,
2013-02-07 11:48:00,63.5,58.2,29.85,NNE,22,5.3,5.3,83,0.00,,,0.00,VWS V14.00,2013-02-07 17:48:00,
2013-02-07 11:53:00,64.2,58.3,29.85,North,0,0.4,0.4,81,0.00,,,0.00,VWS V14.00,2013-02-07 17:53:00,
2013-02-07 11:58:00,64.2,58.3,29.85,NE,45,2.2,2.2,81,0.00,,,0.00,VWS V14.00,2013-02-07 17:58:00,
2013-02-07 12:03:00,64.0,57.7,29.85,NE,45,6.7,6.7,80,0.00,,,0.00,VWS V14.00,2013-02-07 18:03:00,
2013-02-07 12:08:00,64.4,57.8,29.85,NNE,22,6.7,6.7,79,0.00,,,0.00,VWS V14.00,2013-02-07 18:08:00,
2013-02-07 12:13:00,64.0,56.3,29.84,NNE,22,6.9,6.9,76,0.00,,,0.00,VWS V14.00,2013-02-07 18:13:00,
2013-02-07 12:18:00,63.6,56.3,29.84,North,0,4.6,4.6,77,0.00,,,0.00,VWS V14.00,2013-02-07 18:18:00,
2013-02-07 12:24:00,63.6,55.5,29.84,NNW,338,6.9,6.9,75,0.00,,,0.00,VWS V14.00,2013-02-07 18:24:00,
2013-02-07 12:29:00,62.9,55.2,29.84,NW,315,12.3,12.3,76,0.00,,,0.00,VWS V14.00,2013-02-07 18:29:00,
2013-02-07 12:34:00,59.5,53.3,29.84,NNW,338,17.4,17.4,80,0.00,,,0.00,VWS V14.00,2013-02-07 18:34:00,
2013-02-07 12:39:00,57.3,52.5,29.85,NNW,338,12.3,12.3,84,0.00,,,0.00,VWS V14.00,2013-02-07 18:39:00,
2013-02-07 12:44:00,56.3,51.9,29.85,NW,315,14.9,14.9,85,0.00,,,0.00,VWS V14.00,2013-02-07 18:44:00,
2013-02-07 12:49:00,55.7,51.9,29.85,NNW,338,22.1,22.1,87,0.00,,,0.00,VWS V14.00,2013-02-07 18:49:00,
2013-02-07 12:54:00,55.2,51.4,29.85,NNW,338,18.7,22.1,87,0.00,,,0.00,VWS V14.00,2013-02-07 18:54:00,
2013-02-07 13:00:00,54.8,50.7,29.86,NNW,338,28.8,28.8,86,0.00,,,0.00,VWS V14.00,2013-02-07 19:00:00,
2013-02-07 13:05:00,54.8,50.7,29.86,NNW,338,31.5,31.5,86,0.00,,,0.00,VWS V14.00,2013-02-07 19:05:00,
2013-02-07 13:10:00,55.0,50.9,29.87,North,0,19.4,19.4,86,0.00,,,0.00,VWS V14.00,2013-02-07 19:10:00,
2013-02-07 13:15:00,55.0,50.9,29.88,North,0,13.1,13.1,86,0.00,,,0.00,VWS V14.00,2013-02-07 19:15:00,
2013-02-07 13:20:00,54.8,50.4,29.87,North,0,27.5,27.5,85,0.00,,,0.00,VWS V14.00,2013-02-07 19:20:00,
2013-02-07 13:25:00,54.5,50.1,29.88,North,0,28.6,28.6,85,0.00,,,0.00,VWS V14.00,2013-02-07 19:25:00,
2013-02-07 13:30:00,54.3,49.9,29.88,NNW,338,21.4,21.4,85,0.00,,,0.00,VWS V14.00,2013-02-07 19:30:00,
2013-02-07 13:36:00,54.8,49.7,29.88,NNW,338,19.2,19.2,83,0.00,,,0.00,VWS V14.00,2013-02-07 19:36:00,
2013-02-07 13:41:00,55.2,48.8,29.88,North,0,29.9,29.9,79,0.00,,,0.00,VWS V14.00,2013-02-07 19:41:00,
2013-02-07 13:46:00,55.5,49.1,29.89,North,0,26.3,26.3,79,0.00,,,0.00,VWS V14.00,2013-02-07 19:46:00,
2013-02-07 13:51:00,55.5,48.4,29.88,North,0,24.1,24.1,77,0.00,,,0.00,VWS V14.00,2013-02-07 19:51:00,
2013-02-07 13:56:00,55.9,48.1,29.88,NNW,338,28.8,28.8,75,0.00,,,0.00,VWS V14.00,2013-02-07 19:56:00,
2013-02-07 14:01:00,55.9,47.7,29.88,North,0,28.4,28.4,74,0.00,,,0.00,VWS V14.00,2013-02-07 20:01:00,
2013-02-07 14:06:00,56.1,47.9,29.89,North,0,32.4,32.4,74,0.00,,,0.00,VWS V14.00,2013-02-07 20:06:00,
2013-02-07 14:11:00,55.9,47.7,29.89,NNW,338,20.5,20.5,74,0.00,,,0.00,VWS V14.00,2013-02-07 20:11:00,
2013-02-07 14:17:00,55.7,47.9,29.89,North,0,20.8,20.8,75,0.00,,,0.00,VWS V14.00,2013-02-07 20:17:00,
2013-02-07 14:22:00,55.9,47.7,29.89,North,0,20.8,20.8,74,0.00,,,0.00,VWS V14.00,2013-02-07 20:22:00,
2013-02-07 14:27:00,55.9,48.1,29.89,North,0,22.1,22.3,75,0.00,,,0.00,VWS V14.00,2013-02-07 20:27:00,
2013-02-07 14:32:00,55.5,47.7,29.90,NNE,22,22.3,22.3,75,0.00,,,0.00,VWS V14.00,2013-02-07 20:32:00,
2013-02-07 14:37:00,55.4,47.6,29.90,NNE,22,21.6,21.6,75,0.00,,,0.00,VWS V14.00,2013-02-07 20:37:00,
2013-02-07 14:42:00,55.2,47.8,29.91,North,0,17.0,17.0,76,0.00,,,0.00,VWS V14.00,2013-02-07 20:42:00,
2013-02-07 14:47:00,54.6,47.2,29.91,North,0,26.3,26.3,76,0.00,,,0.00,VWS V14.00,2013-02-07 20:47:00,
2013-02-07 14:53:00,54.8,47.4,29.91,North,0,14.5,14.5,76,0.00,,,0.00,VWS V14.00,2013-02-07 20:53:00,
2013-02-07 14:58:00,55.0,47.2,29.90,North,0,13.8,13.8,75,0.00,,,0.00,VWS V14.00,2013-02-07 20:58:00,
2013-02-07 15:03:00,54.6,47.2,29.91,NNW,338,29.3,29.3,76,0.00,,,0.00,VWS V14.00,2013-02-07 21:03:00,
2013-02-07 15:08:00,53.7,46.7,29.91,NNW,338,17.4,17.4,77,0.00,,,0.00,VWS V14.00,2013-02-07 21:08:00,
2013-02-07 15:13:00,53.4,46.4,29.91,NNW,338,22.3,22.3,77,0.00,,,0.00,VWS V14.00,2013-02-07 21:13:00,
2013-02-07 15:18:00,53.4,46.4,29.91,NNW,338,26.6,26.6,77,0.00,,,0.00,VWS V14.00,2013-02-07 21:18:00,
2013-02-07 15:23:00,53.4,46.7,29.92,North,0,25.9,25.9,78,0.00,,,0.00,VWS V14.00,2013-02-07 21:23:00,
2013-02-07 15:29:00,53.4,46.7,29.94,NNW,338,14.5,14.5,78,0.00,,,0.00,VWS V14.00,2013-02-07 21:29:00,
2013-02-07 15:34:00,52.8,46.5,29.94,NNW,338,10.7,10.7,79,0.00,,,0.00,VWS V14.00,2013-02-07 21:34:00,
2013-02-07 15:39:00,52.7,47.7,29.93,NNW,338,21.6,21.6,83,0.00,,,0.00,VWS V14.00,2013-02-07 21:39:00,
2013-02-07 15:44:00,51.9,47.2,29.94,NW,315,20.8,20.8,84,0.00,,,0.00,VWS V14.00,2013-02-07 21:44:00,
2013-02-07 15:49:00,51.2,47.2,29.94,NNW,338,13.6,13.6,86,0.00,,,0.00,VWS V14.00,2013-02-07 21:49:00,
2013-02-07 15:54:00,50.5,46.8,29.95,NNW,338,7.6,7.6,87,0.02,,,0.02,VWS V14.00,2013-02-07 21:54:00,
2013-02-07 15:59:00,50.1,46.7,29.96,NNW,338,13.4,13.4,88,0.04,,,0.04,VWS V14.00,2013-02-07 21:59:00,
2013-02-07 16:04:00,49.8,46.4,29.96,NNW,338,9.8,9.8,88,0.04,,,0.04,VWS V14.00,2013-02-07 22:04:00,
2013-02-07 16:09:00,49.8,46.4,29.96,NNW,338,14.0,14.0,88,0.06,,,0.06,VWS V14.00,2013-02-07 22:09:00,
2013-02-07 16:15:00,49.8,46.4,29.96,NNW,338,10.5,10.5,88,0.06,,,0.06,VWS V14.00,2013-02-07 22:15:00,
2013-02-07 16:20:00,50.0,46.3,29.96,North,0,15.2,15.2,87,0.06,,,0.06,VWS V14.00,2013-02-07 22:20:00,
2013-02-07 16:25:00,50.1,46.4,29.97,NNW,338,13.4,13.4,87,0.06,,,0.06,VWS V14.00,2013-02-07 22:25:00,
2013-02-07 16:30:00,50.1,46.1,29.98,NNW,338,13.8,13.8,86,0.06,,,0.06,VWS V14.00,2013-02-07 22:30:00,
2013-02-07 16:35:00,50.1,46.1,29.98,NNW,338,8.5,8.5,86,0.06,,,0.06,VWS V14.00,2013-02-07 22:35:00,
2013-02-07 16:40:00,50.1,46.1,29.98,NNW,338,8.9,8.9,86,0.06,,,0.06,VWS V14.00,2013-02-07 22:40:00,
2013-02-07 16:45:00,50.1,45.8,29.98,NNW,338,11.1,11.1,85,0.06,,,0.06,VWS V14.00,2013-02-07 22:45:00,
2013-02-07 16:51:00,50.1,45.8,29.99,NNW,338,13.6,13.6,85,0.04,,,0.06,VWS V14.00,2013-02-07 22:51:00,
2013-02-07 16:56:00,50.5,46.2,29.98,NNW,338,9.8,9.8,85,0.04,,,0.06,VWS V14.00,2013-02-07 22:56:00,
2013-02-07 17:01:00,50.5,45.5,29.98,North,0,17.0,17.0,83,0.02,,,0.06,VWS V14.00,2013-02-07 23:01:00,
2013-02-07 17:06:00,50.5,45.2,29.98,NNW,338,17.0,17.0,82,0.00,,,0.06,VWS V14.00,2013-02-07 23:06:00,
2013-02-07 17:11:00,50.5,45.2,29.98,NNW,338,6.7,6.7,82,0.00,,,0.06,VWS V14.00,2013-02-07 23:11:00,
2013-02-07 17:16:00,50.3,44.7,29.98,NNW,338,12.3,12.3,81,0.00,,,0.06,VWS V14.00,2013-02-07 23:16:00,
2013-02-07 17:21:00,50.1,44.8,29.98,NNW,338,14.0,14.0,82,0.00,,,0.06,VWS V14.00,2013-02-07 23:21:00,
2013-02-07 17:26:00,50.1,44.8,29.99,NNW,338,8.0,8.0,82,0.00,,,0.06,VWS V14.00,2013-02-07 23:26:00,
2013-02-07 17:32:00,50.0,44.7,29.99,NNW,338,6.2,6.2,82,0.00,,,0.06,VWS V14.00,2013-02-07 23:32:00,
2013-02-07 17:37:00,50.1,44.2,29.99,North,0,11.1,11.1,80,0.00,,,0.06,VWS V14.00,2013-02-07 23:37:00,
2013-02-07 17:42:00,50.1,43.2,29.99,NNW,338,17.2,17.2,77,0.00,,,0.06,VWS V14.00,2013-02-07 23:42:00,
2013-02-07 17:47:00,50.1,42.8,30.00,NNW,338,15.2,15.2,76,0.00,,,0.06,VWS V14.00,2013-02-07 23:47:00,
2013-02-07 17:52:00,50.0,42.7,30.00,NNW,338,16.5,16.5,76,0.00,,,0.06,VWS V14.00,2013-02-07 23:52:00,
2013-02-07 17:57:00,49.8,41.9,30.00,NNW,338,12.5,12.5,74,0.00,,,0.06,VWS V14.00,2013-02-07 23:57:00,
2013-02-07 18:02:00,49.6,42.0,30.00,NNW,338,6.4,6.4,75,0.00,,,0.06,VWS V14.00,2013-02-08 00:02:00,
2013-02-07 18:07:00,49.1,41.9,30.01,NNW,338,9.6,9.6,76,0.00,,,0.06,VWS V14.00,2013-02-08 00:07:00,
2013-02-07 18:12:00,48.9,41.7,30.01,North,0,6.4,6.4,76,0.00,,,0.06,VWS V14.00,2013-02-08 00:12:00,
2013-02-07 18:18:00,48.7,41.5,30.01,NNW,338,12.5,12.5,76,0.00,,,0.06,VWS V14.00,2013-02-08 00:18:00,
2013-02-07 18:23:00,48.7,41.5,30.02,NW,315,13.4,13.4,76,0.00,,,0.06,VWS V14.00,2013-02-08 00:23:00,
2013-02-07 18:28:00,48.5,41.6,30.02,NNW,338,6.2,6.2,77,0.00,,,0.06,VWS V14.00,2013-02-08 00:28:00,
2013-02-07 18:33:00,48.2,41.3,30.02,NNW,338,9.6,9.6,77,0.00,,,0.06,VWS V14.00,2013-02-08 00:33:00,
2013-02-07 18:38:00,48.0,41.2,30.03,NNW,338,7.8,7.8,77,0.00,,,0.06,VWS V14.00,2013-02-08 00:38:00,
2013-02-07 18:43:00,47.8,41.0,30.02,NNW,338,5.1,8.2,77,0.00,,,0.06,VWS V14.00,2013-02-08 00:43:00,
2013-02-07 18:48:00,48.0,41.2,30.03,NW,315,8.9,8.9,77,0.00,,,0.06,VWS V14.00,2013-02-08 00:48:00,
2013-02-07 18:54:00,48.0,41.2,30.03,NNW,338,1.7,1.7,77,0.00,,,0.06,VWS V14.00,2013-02-08 00:54:00,
2013-02-07 18:59:00,48.0,40.5,30.04,NNW,338,4.0,4.0,75,0.00,,,0.06,VWS V14.00,2013-02-08 00:59:00,
2013-02-07 19:04:00,48.0,40.1,30.04,NNW,338,6.4,6.4,74,0.00,,,0.06,VWS V14.00,2013-02-08 01:04:00,
2013-02-07 19:09:00,48.0,39.8,30.04,NNW,338,11.6,11.6,73,0.00,,,0.06,VWS V14.00,2013-02-08 01:09:00,
2013-02-07 19:14:00,47.8,39.2,30.04,NNW,338,6.4,6.4,72,0.00,,,0.06,VWS V14.00,2013-02-08 01:14:00,
2013-02-07 19:19:00,47.8,39.2,30.05,North,0,9.6,9.6,72,0.00,,,0.06,VWS V14.00,2013-02-08 01:19:00,
2013-02-07 19:24:00,47.6,38.7,30.05,NNW,338,8.2,8.2,71,0.00,,,0.06,VWS V14.00,2013-02-08 01:24:00,
2013-02-07 19:29:00,47.4,38.8,30.05,NNW,338,8.0,8.0,72,0.00,,,0.06,VWS V14.00,2013-02-08 01:29:00,
2013-02-07 19:35:00,47.1,38.5,30.05,NNW,338,6.9,6.9,72,0.00,,,0.06,VWS V14.00,2013-02-08 01:35:00,
2013-02-07 19:40:00,47.1,38.5,30.05,NNW,338,6.7,6.7,72,0.00,,,0.06,VWS V14.00,2013-02-08 01:40:00,
2013-02-07 19:45:00,46.7,38.5,30.06,NNW,338,8.9,8.9,73,0.00,,,0.06,VWS V14.00,2013-02-08 01:45:00,
2013-02-07 19:50:00,46.7,38.2,30.06,NNW,338,11.6,11.6,72,0.00,,,0.06,VWS V14.00,2013-02-08 01:50:00,
2013-02-07 19:55:00,46.7,38.2,30.06,NNW,338,6.7,6.7,72,0.00,,,0.06,VWS V14.00,2013-02-08 01:55:00,
2013-02-07 20:00:00,47.1,38.2,30.06,NNW,338,9.3,9.3,71,0.00,,,0.06,VWS V14.00,2013-02-08 02:00:00,
2013-02-07 20:06:00,47.1,37.8,30.07,NNW,338,12.5,12.5,70,0.00,,,0.06,VWS V14.00,2013-02-08 02:06:00,
2013-02-07 20:11:00,47.3,37.7,30.07,NNW,338,15.2,15.2,69,0.00,,,0.06,VWS V14.00,2013-02-08 02:11:00,
2013-02-07 20:16:00,46.9,37.6,30.06,NNW,338,17.2,17.2,70,0.00,,,0.06,VWS V14.00,2013-02-08 02:16:00,
2013-02-07 20:21:00,46.9,37.6,30.06,North,0,12.5,12.9,70,0.00,,,0.06,VWS V14.00,2013-02-08 02:21:00,
2013-02-07 20:26:00,46.7,37.5,30.06,North,0,14.7,14.7,70,0.00,,,0.06,VWS V14.00,2013-02-08 02:26:00,
2013-02-07 20:31:00,46.5,37.3,30.07,NNW,338,9.3,9.3,70,0.00,,,0.06,VWS V14.00,2013-02-08 02:31:00,
2013-02-07 20:36:00,46.5,37.3,30.07,NNW,338,13.4,13.4,70,0.00,,,0.06,VWS V14.00,2013-02-08 02:36:00,
2013-02-07 20:41:00,46.4,37.5,30.07,NNW,338,12.9,12.9,71,0.00,,,0.06,VWS V14.00,2013-02-08 02:41:00,
2013-02-07 20:47:00,46.4,37.5,30.07,NNW,338,8.7,8.7,71,0.00,,,0.06,VWS V14.00,2013-02-08 02:47:00,
2013-02-07 20:52:00,46.2,37.3,30.08,NNW,338,11.6,11.6,71,0.00,,,0.06,VWS V14.00,2013-02-08 02:52:00,
2013-02-07 20:57:00,46.2,37.3,30.08,NNW,338,7.8,7.8,71,0.00,,,0.06,VWS V14.00,2013-02-08 02:57:00,
2013-02-07 21:02:00,46.0,37.1,30.09,NNW,338,8.2,8.2,71,0.00,,,0.06,VWS V14.00,2013-02-08 03:02:00,
2013-02-07 21:07:00,46.0,37.1,30.09,NNW,338,12.5,12.5,71,0.00,,,0.06,VWS V14.00,2013-02-08 03:07:00,
2013-02-07 21:12:00,45.8,37.0,30.09,NNW,338,9.3,9.3,71,0.00,,,0.06,VWS V14.00,2013-02-08 03:12:00,
2013-02-07 21:17:00,46.0,36.8,30.09,NNW,338,9.1,9.8,70,0.00,,,0.06,VWS V14.00,2013-02-08 03:17:00,
2013-02-07 21:23:00,46.0,36.8,30.09,NW,315,11.6,11.6,70,0.00,,,0.06,VWS V14.00,2013-02-08 03:23:00,
2013-02-07 21:28:00,45.8,37.0,30.10,NNW,338,8.2,8.2,71,0.00,,,0.06,VWS V14.00,2013-02-08 03:28:00,
2013-02-07 21:33:00,45.8,37.0,30.10,NNW,338,7.8,7.8,71,0.00,,,0.06,VWS V14.00,2013-02-08 03:33:00,
2013-02-07 21:38:00,46.0,36.8,30.11,NNW,338,10.0,10.0,70,0.00,,,0.06,VWS V14.00,2013-02-08 03:38:00,
2013-02-07 21:43:00,46.0,36.8,30.11,NW,315,10.5,10.5,70,0.00,,,0.06,VWS V14.00,2013-02-08 03:43:00,
2013-02-07 21:48:00,46.0,36.8,30.11,NNW,338,6.4,6.4,70,0.00,,,0.06,VWS V14.00,2013-02-08 03:48:00,
2013-02-07 21:53:00,45.6,36.4,30.11,NNW,338,12.3,12.3,70,0.00,,,0.06,VWS V14.00,2013-02-08 03:53:00,
2013-02-07 21:58:00,45.6,36.4,30.11,NNW,338,12.5,12.5,70,0.00,,,0.06,VWS V14.00,2013-02-08 03:58:00,
2013-02-07 22:03:00,45.5,36.3,30.11,NW,315,8.5,8.5,70,0.00,,,0.06,VWS V14.00,2013-02-08 04:03:00,
2013-02-07 22:09:00,45.5,36.3,30.12,NNW,338,7.8,7.8,70,0.00,,,0.06,VWS V14.00,2013-02-08 04:09:00,
2013-02-07 22:14:00,45.3,36.1,30.12,NNW,338,8.7,8.7,70,0.00,,,0.06,VWS V14.00,2013-02-08 04:14:00,
2013-02-07 22:19:00,45.1,35.9,30.12,NNW,338,6.7,6.7,70,0.00,,,0.06,VWS V14.00,2013-02-08 04:19:00,
2013-02-07 22:24:00,45.1,35.9,30.12,NNW,338,8.9,8.9,70,0.00,,,0.06,VWS V14.00,2013-02-08 04:24:00,
2013-02-07 22:29:00,44.9,36.1,30.13,NNW,338,8.5,8.5,71,0.00,,,0.06,VWS V14.00,2013-02-08 04:29:00,
2013-02-07 22:34:00,44.4,35.6,30.13,NNW,338,7.3,7.3,71,0.00,,,0.06,VWS V14.00,2013-02-08 04:34:00,
2013-02-07 22:39:00,44.4,35.6,30.13,NNW,338,4.6,4.6,71,0.00,,,0.06,VWS V14.00,2013-02-08 04:39:00,
2013-02-07 22:44:00,44.2,35.4,30.13,NNW,338,2.4,2.4,71,0.00,,,0.06,VWS V14.00,2013-02-08 04:44:00,
2013-02-07 22:50:00,44.2,35.8,30.13,NNW,338,3.1,3.1,72,0.00,,,0.06,VWS V14.00,2013-02-08 04:50:00,
2013-02-07 22:55:00,43.8,35.4,30.13,NNW,338,0.0,0.0,72,0.00,,,0.06,VWS V14.00,2013-02-08 04:55:00,
2013-02-07 23:00:00,43.5,35.1,30.13,NNW,338,0.6,8.7,72,0.00,,,0.06,VWS V14.00,2013-02-08 05:00:00,
2013-02-07 23:01:00,43.5,35.1,30.13,NNW,338,0.6,0.6,72,0.00,,,0.06,VWS V14.00,2013-02-08 05:01:00,
2013-02-07 23:06:00,43.5,35.1,30.14,NNW,338,0.0,0.0,72,0.00,,,0.06,VWS V14.00,2013-02-08 05:06:00,
2013-02-07 23:12:00,43.3,34.9,30.14,NNW,338,0.0,0.0,72,0.00,,,0.06,VWS V14.00,2013-02-08 05:12:00,
2013-02-07 23:17:00,43.1,35.0,30.14,NNW,338,7.8,7.8,73,0.00,,,0.06,VWS V14.00,2013-02-08 05:17:00,
2013-02-07 23:22:00,43.3,34.9,30.14,NNW,338,7.3,7.3,72,0.00,,,0.06,VWS V14.00,2013-02-08 05:22:00,
2013-02-07 23:27:00,43.1,34.7,30.14,NNW,338,6.4,6.4,72,0.00,,,0.06,VWS V14.00,2013-02-08 05:27:00,
2013-02-07 23:32:00,43.1,34.7,30.14,North,0,7.1,7.1,72,0.00,,,0.06,VWS V14.00,2013-02-08 05:32:00,
2013-02-07 23:37:00,42.9,34.8,30.14,NNW,338,2.6,2.6,73,0.00,,,0.06,VWS V14.00,2013-02-08 05:37:00,
2013-02-07 23:42:00,42.6,34.6,30.15,NNW,338,7.3,7.3,73,0.00,,,0.06,VWS V14.00,2013-02-08 05:42:00,
2013-02-07 23:48:00,42.4,34.4,30.15,NNW,338,2.0,2.0,73,0.00,,,0.06,VWS V14.00,2013-02-08 05:48:00,
2013-02-07 23:53:00,42.0,34.0,30.15,NNW,338,2.0,2.0,73,0.00,,,0.06,VWS V14.00,2013-02-08 05:53:00,
2013-02-07 23:58:00,42.0,34.0,30.15,NNW,338,0.0,0.0,73,0.00,,,0.06,VWS V14.00,2013-02-08 05:58:00,